sensor_id;sensor_type;location;lat;lon;timestamp;temperature;humidity
57719;DHT22;43561;50.090;18.522;2023-02-01T03:08:17;1.00;99.90
57719;DHT22;43561;50.090;18.522;2023-02-01T04:24:12;1.50;99.90
57719;DHT22;43561;50.090;18.522;2023-02-01T04:46:09;1.40;99.90
57719;DHT22;43561;50.090;18.522;2023-02-01T05:18:49;1.50;99.90
57719;DHT22;43561;50.090;18.522;2023-02-01T05:40:11;1.70;99.90
57719;DHT22;43561;50.090;18.522;2023-02-01T05:50:14;1.60;99.90
57719;DHT22;43561;50.090;18.522;2023-02-01T06:00:22;1.60;99.90
57719;DHT22;43561;50.090;18.522;2023-02-01T06:10:30;1.70;99.90
57719;DHT22;43561;50.090;18.522;2023-02-01T06:31:38;1.40;99.90
57719;DHT22;43561;50.090;18.522;2023-02-01T06:42:09;1.50;99.90
57719;DHT22;43561;50.090;18.522;2023-02-01T06:52:14;1.50;99.90
57719;DHT22;43561;50.090;18.522;2023-02-01T07:13:37;1.60;99.90
57719;DHT22;43561;50.090;18.522;2023-02-01T08:19:19;2.10;99.90
57719;DHT22;43561;50.090;18.522;2023-02-01T08:30:26;2.30;99.90
57719;DHT22;43561;50.090;18.522;2023-02-01T08:52:38;2.40;99.90
57719;DHT22;43561;50.090;18.522;2023-02-01T09:02:58;2.50;99.90
57719;DHT22;43561;50.090;18.522;2023-02-01T09:13:01;2.70;99.90
57719;DHT22;43561;50.090;18.522;2023-02-01T09:23:04;2.80;99.90
57719;DHT22;43561;50.090;18.522;2023-02-01T09:33:12;2.90;99.90
57719;DHT22;43561;50.090;18.522;2023-02-01T10:05:00;3.30;99.90
57719;DHT22;43561;50.090;18.522;2023-02-01T10:25:28;3.50;99.90
57719;DHT22;43561;50.090;18.522;2023-02-01T10:35:34;3.80;99.90
57719;DHT22;43561;50.090;18.522;2023-02-01T10:57:20;4.00;99.90
57719;DHT22;43561;50.090;18.522;2023-02-01T11:07:46;4.00;99.90
57719;DHT22;43561;50.090;18.522;2023-02-01T11:17:54;3.90;99.90
57719;DHT22;43561;50.090;18.522;2023-02-01T11:28:23;4.00;99.90
57719;DHT22;43561;50.090;18.522;2023-02-01T11:50:35;4.40;99.90
57719;DHT22;43561;50.090;18.522;2023-02-01T12:21:41;4.50;99.90
57719;DHT22;43561;50.090;18.522;2023-02-01T12:42:43;4.50;99.90
57719;DHT22;43561;50.090;18.522;2023-02-01T12:52:54;4.70;99.90
57719;DHT22;43561;50.090;18.522;2023-02-01T13:03:07;4.60;99.90
57719;DHT22;43561;50.090;18.522;2023-02-01T13:23:30;4.50;99.90
57719;DHT22;43561;50.090;18.522;2023-02-01T14:52:18;3.00;99.90
57719;DHT22;43561;50.090;18.522;2023-02-01T15:02:52;2.90;99.90
57719;DHT22;43561;50.090;18.522;2023-02-01T15:13:24;3.00;99.90
57719;DHT22;43561;50.090;18.522;2023-02-01T15:23:34;3.10;99.90
57719;DHT22;43561;50.090;18.522;2023-02-01T15:44:57;3.20;99.90
57719;DHT22;43561;50.090;18.522;2023-02-01T15:55:37;3.30;99.90
57719;DHT22;43561;50.090;18.522;2023-02-01T16:05:44;3.30;99.90
57719;DHT22;43561;50.090;18.522;2023-02-01T16:15:47;3.30;99.90
57719;DHT22;43561;50.090;18.522;2023-02-01T16:25:49;3.30;99.90
57719;DHT22;43561;50.090;18.522;2023-02-01T16:35:52;3.20;99.90
57719;DHT22;43561;50.090;18.522;2023-02-01T16:46:01;3.10;99.90
57719;DHT22;43561;50.090;18.522;2023-02-01T16:56:23;2.90;99.90
57719;DHT22;43561;50.090;18.522;2023-02-01T17:06:26;2.90;99.90
57719;DHT22;43561;50.090;18.522;2023-02-01T17:16:30;2.90;99.90
57719;DHT22;43561;50.090;18.522;2023-02-01T17:26:32;3.00;99.90
57719;DHT22;43561;50.090;18.522;2023-02-01T17:36:34;3.10;99.90
57719;DHT22;43561;50.090;18.522;2023-02-01T17:46:43;3.00;99.90
57719;DHT22;43561;50.090;18.522;2023-02-01T17:56:45;2.80;99.90
57719;DHT22;43561;50.090;18.522;2023-02-01T18:06:47;2.70;99.90
57719;DHT22;43561;50.090;18.522;2023-02-01T18:16:49;2.60;99.90
57719;DHT22;43561;50.090;18.522;2023-02-01T18:26:51;2.50;99.90
57719;DHT22;43561;50.090;18.522;2023-02-01T18:36:53;2.50;99.90
57719;DHT22;43561;50.090;18.522;2023-02-01T18:46:55;2.60;99.90
57719;DHT22;43561;50.090;18.522;2023-02-01T18:56:57;2.60;99.90
57719;DHT22;43561;50.090;18.522;2023-02-01T19:07:28;2.50;99.90
57719;DHT22;43561;50.090;18.522;2023-02-01T19:17:33;2.50;99.90
57719;DHT22;43561;50.090;18.522;2023-02-01T19:27:35;2.60;99.90
57719;DHT22;43561;50.090;18.522;2023-02-01T19:37:37;2.70;99.90
57719;DHT22;43561;50.090;18.522;2023-02-01T19:47:39;2.80;99.90
57719;DHT22;43561;50.090;18.522;2023-02-01T19:57:41;2.90;99.90
57719;DHT22;43561;50.090;18.522;2023-02-01T20:07:43;2.90;99.90
57719;DHT22;43561;50.090;18.522;2023-02-01T20:17:44;2.90;99.90
57719;DHT22;43561;50.090;18.522;2023-02-01T20:27:46;3.00;99.90
57719;DHT22;43561;50.090;18.522;2023-02-01T20:37:48;2.80;99.90
57719;DHT22;43561;50.090;18.522;2023-02-01T20:47:50;2.60;99.90
57719;DHT22;43561;50.090;18.522;2023-02-01T20:57:52;2.60;99.90
57719;DHT22;43561;50.090;18.522;2023-02-01T21:07:57;2.60;99.90
57719;DHT22;43561;50.090;18.522;2023-02-01T21:18:00;2.60;99.90
57719;DHT22;43561;50.090;18.522;2023-02-01T21:28:02;2.60;99.90
57719;DHT22;43561;50.090;18.522;2023-02-01T21:38:03;2.60;99.90
57719;DHT22;43561;50.090;18.522;2023-02-01T21:48:05;2.70;99.90
57719;DHT22;43561;50.090;18.522;2023-02-01T21:58:07;2.70;99.90
57719;DHT22;43561;50.090;18.522;2023-02-01T22:08:09;2.80;99.90
57719;DHT22;43561;50.090;18.522;2023-02-01T22:18:17;2.70;99.90
57719;DHT22;43561;50.090;18.522;2023-02-01T23:02:51;2.30;99.90
57719;DHT22;43561;50.090;18.522;2023-02-01T23:12:57;2.20;99.90
57719;DHT22;43561;50.090;18.522;2023-02-01T23:23:10;2.20;99.90
57719;DHT22;43561;50.090;18.522;2023-02-01T23:33:14;2.10;99.90
57719;DHT22;43561;50.090;18.522;2023-02-01T23:43:21;1.90;99.90
57719;DHT22;43561;50.090;18.522;2023-02-01T23:53:29;1.90;99.90
